Terminal Aerodrome Forecast
Issued by NWS Rapid City, SD

Home | Current Version | Previous Version | Graphics & Text | Print | Product List | Glossary On
Versions: 1 2 3 4 5 6 7 8 9 10 11 12 13 14 15 16 17
000
FTUS43 KUNR 080752 AAA
TAFRAP
TAF AMD
KRAP 080752Z 0808/0906 33034G50KT P6SM SCT100
     FM081200 33020G30KT P6SM SCT100
     FM081800 33027G40KT P6SM SCT150=

USA.gov is the U.S. government's official web portal to all federal, state and local government web resources and services.